Terminal Aerodrome Forecast
Issued by NWS Mobile, AL

Home | Current Version | Previous Version | Text Only | Print | Product List | Glossary On
Versions: 1 2 3 4 5 6 7 8 9 10 11 12 13 14 15 16 17 18 19 20 21 22 23 24 25 26 27 28 29 30 31 32 33 34 35 36
000
FTUS44 KMOB 020522
TAFMOB
TAF
KMOB 020522Z 0206/0306 21003KT P6SM SCT150 SCT250
     FM021000 23003KT P6SM VCSH SCT035 SCT150
     FM021400 23008KT P6SM VCTS SCT035CB SCT150
     FM030000 19006KT P6SM SCT040 SCT100=

USA.gov is the U.S. government's official web portal to all federal, state and local government web resources and services.